Terminal Aerodrome Forecast
Issued by NWS

Home | Current Version | Previous Version | Text Only | Print | Product List | Glossary On
Versions: 1 2 3 4 5 6 7 8 9 10 11 12 13 14 15
000
FTUS45 KTFX 281500 AAA
TAFGTF
TAF AMD
KGTF 281525Z 2815/2912 24017G25KT P6SM SCT090
     FM281630 27030G40KT P6SM BKN100
     FM290500 22010KT P6SM BKN250=

USA.gov is the U.S. government's official web portal to all federal, state and local government web resources and services.